| time (UTC) | temp F | wind direction | speed knots | gust knots | rain 1hr in | rain 24hr in | rain mn in | humidity % | barometer mb |
| 20260906065017 | 70 | 248 | 0.0 | 0.0 | 0.00 | 0.00 | 0.00 | 98 | 1011.5 |
| 20260906064516 | 70 | 248 | 0.0 | 0.0 | 0.00 | 0.00 | 0.00 | 98 | 1011.5 |
| 20260906064014 | 70 | 293 | 0.0 | 0.0 | 0.00 | 0.00 | 0.00 | 98 | 1011.5 |
| 20260906063513 | 70 | 248 | 0.0 | 0.0 | 0.00 | 0.00 | 0.00 | 98 | 1011.5 |
| 20260906063011 | 70 | 248 | 0.0 | 0.0 | 0.00 | 0.00 | 0.00 | 98 | 1011.5 |
| 20260906062509 | 69 | 0 | 0.0 | 0.0 | 0.00 | 0.00 | 0.00 | 98 | 1011.5 |
| 20260906062008 | 70 | 0 | 0.0 | 0.0 | 0.00 | 0.00 | 0.00 | 98 | 1011.5 |
| 20260906061506 | 69 | 248 | 0.0 | 0.0 | 0.00 | 0.00 | 0.00 | 98 | 1011.8 |
| 20260906061005 | 70 | 248 | 0.0 | 0.0 | 0.00 | 0.00 | 0.00 | 98 | 1011.8 |
| 20260906060503 | 70 | 0 | 0.0 | 0.0 | 0.00 | 0.00 | 0.00 | 98 | 1011.8 |
| 20260906060001 | 70 | 0 | 0.0 | 0.0 | 0.00 | 0.00 | 0.00 | 98 | 1012.1 |
| 20260906055500 | 70 | 225 | 0.0 | 0.0 | 0.00 | 0.00 | 0.00 | 98 | 1012.1 |
| 20260906054958 | 70 | 225 | 0.0 | 0.0 | 0.00 | 0.00 | 0.00 | 98 | 1012.1 |
| 20260906054457 | 70 | 180 | 0.0 | 0.0 | 0.00 | 0.00 | 0.00 | 98 | 1011.8 |
| 20260906053955 | 70 | 270 | 0.0 | 0.0 | 0.00 | 0.00 | 0.00 | 98 | 1012.1 |
| 20260906053453 | 70 | 23 | 0.0 | 0.0 | 0.00 | 0.00 | 0.00 | 98 | 1012.5 |
| 20260906052951 | 70 | 113 | 0.0 | 0.0 | 0.00 | 0.00 | 0.00 | 98 | 1011.8 |
| 20260906052450 | 70 | 203 | 0.0 | 0.0 | 0.00 | 0.00 | 0.00 | 98 | 1011.8 |
| 20260906051948 | 70 | 225 | 0.0 | 0.0 | 0.00 | 0.00 | 0.00 | 98 | 1012.1 |
| 20260906051446 | 70 | 225 | 0.0 | 0.0 | 0.00 | 0.00 | 0.00 | 98 | 1012.5 |
| 20260906050944 | 70 | 225 | 0.0 | 0.0 | 0.00 | 0.00 | 0.00 | 98 | 1012.5 |
| 20260906050442 | 70 | 0 | 0.0 | 0.0 | 0.00 | 0.00 | 0.00 | 98 | 1012.5 |
| 20260906045941 | 70 | 225 | 0.0 | 0.0 | 0.00 | 0.00 | 0.00 | 98 | 1012.5 |
| 20260906045439 | 70 | 248 | 0.0 | 0.0 | 0.00 | 0.00 | 0.00 | 98 | 1012.1 |
| 20260906044937 | 70 | 203 | 0.0 | 0.0 | 0.00 | 0.00 | 0.00 | 98 | 1012.5 |
| 20260906044436 | 70 | 293 | 0.0 | 0.0 | 0.00 | 0.00 | 0.00 | 98 | 1012.1 |
| 20260906043934 | 70 | 0 | 0.0 | 0.0 | 0.00 | 0.00 | 0.00 | 98 | 1012.5 |
| 20260906043432 | 70 | 23 | 0.0 | 0.0 | 0.00 | 0.00 | 0.00 | 98 | 1012.1 |
| 20260906042930 | 70 | 23 | 0.0 | 0.0 | 0.00 | 0.00 | 0.00 | 98 | 1012.5 |
| 20260906042429 | 70 | 293 | 0.0 | 0.0 | 0.00 | 0.00 | 0.00 | 97 | 1012.8 |
| 20260906041927 | 71 | 338 | 0.0 | 0.0 | 0.00 | 0.00 | 0.00 | 97 | 1012.5 |
| 20260906041425 | 71 | 23 | 0.0 | 0.0 | 0.00 | 0.00 | 0.00 | 97 | 1012.5 |
| 20260906040924 | 71 | 248 | 0.0 | 0.0 | 0.00 | 0.00 | 0.00 | 97 | 1012.5 |
| 20260906040422 | 71 | 225 | 0.0 | 0.0 | 0.00 | 0.00 | 0.00 | 97 | 1012.8 |
| 20260906035920 | 71 | 315 | 0.0 | 0.0 | 0.00 | 0.03 | 0.03 | 97 | 1012.8 |
| 20260906035419 | 71 | 225 | 0.0 | 0.0 | 0.00 | 0.03 | 0.03 | 97 | 1012.8 |
| 20260906034917 | 71 | 248 | 0.0 | 0.0 | 0.00 | 0.03 | 0.03 | 97 | 1012.8 |
| 20260906034416 | 71 | 0 | 0.0 | 0.0 | 0.00 | 0.03 | 0.03 | 97 | 1012.8 |
| 20260906033914 | 71 | 225 | 0.0 | 0.0 | 0.00 | 0.03 | 0.03 | 97 | 1012.8 |
| 20260906033412 | 71 | 293 | 0.0 | 0.0 | 0.00 | 0.03 | 0.03 | 97 | 1012.8 |
| 20260906032910 | 71 | 315 | 0.0 | 0.0 | 0.00 | 0.03 | 0.03 | 97 | 1012.8 |
| 20260906032409 | 71 | 225 | 0.0 | 0.0 | 0.00 | 0.03 | 0.03 | 97 | 1012.8 |
| 20260906031907 | 71 | 225 | 0.0 | 0.0 | 0.00 | 0.03 | 0.03 | 97 | 1012.8 |
| 20260906031406 | 71 | 225 | 0.0 | 0.0 | 0.00 | 0.03 | 0.03 | 97 | 1012.8 |
| 20260906030904 | 71 | 203 | 0.0 | 0.0 | 0.00 | 0.03 | 0.03 | 97 | 1012.8 |
| 20260906030403 | 71 | 203 | 0.0 | 0.0 | 0.00 | 0.03 | 0.03 | 96 | 1012.8 |
| 20260906025901 | 72 | 45 | 0.0 | 0.0 | 0.00 | 0.03 | 0.03 | 96 | 1012.8 |
| 20260906025359 | 72 | 270 | 0.0 | 0.0 | 0.00 | 0.03 | 0.03 | 96 | 1013.2 |
| 20260906024857 | 72 | 225 | 0.0 | 0.9 | 0.00 | 0.03 | 0.03 | 96 | 1012.8 |
| 20260906024356 | 72 | 248 | 0.0 | 0.0 | 0.00 | 0.03 | 0.03 | 96 | 1013.2 |
| 20260906023854 | 72 | 248 | 0.0 | 0.0 | 0.00 | 0.03 | 0.03 | 96 | 1012.8 |
| 20260906023353 | 72 | 23 | 0.0 | 0.0 | 0.00 | 0.03 | 0.03 | 96 | 1012.8 |
| 20260906022851 | 72 | 203 | 0.0 | 0.0 | 0.00 | 0.03 | 0.03 | 96 | 1012.8 |
| 20260906022349 | 72 | 225 | 0.0 | 0.0 | 0.00 | 0.03 | 0.03 | 96 | 1012.8 |
| 20260906021848 | 72 | 225 | 0.0 | 0.9 | 0.00 | 0.03 | 0.03 | 95 | 1012.8 |
| 20260906021346 | 73 | 203 | 0.0 | 0.0 | 0.00 | 0.03 | 0.03 | 95 | 1012.5 |
| 20260906020845 | 73 | 225 | 0.0 | 0.0 | 0.00 | 0.03 | 0.03 | 95 | 1012.8 |
| 20260906020343 | 73 | 225 | 0.0 | 0.0 | 0.00 | 0.03 | 0.03 | 95 | 1012.5 |
| 20260906015841 | 73 | 203 | 0.0 | 0.0 | 0.00 | 0.03 | 0.03 | 95 | 1012.5 |
| 20260906015340 | 73 | 338 | 0.0 | 0.0 | 0.00 | 0.03 | 0.03 | 95 | 1012.5 |
| 20260906014838 | 73 | 0 | 0.0 | 0.0 | 0.00 | 0.03 | 0.03 | 94 | 1012.5 |
| 20260906014336 | 73 | 315 | 0.0 | 0.0 | 0.00 | 0.03 | 0.03 | 94 | 1012.5 |
| 20260906013835 | 73 | 248 | 0.0 | 0.9 | 0.00 | 0.03 | 0.03 | 94 | 1012.1 |
| 20260906013333 | 73 | 225 | 0.0 | 0.9 | 0.00 | 0.03 | 0.03 | 94 | 1012.5 |
| 20260906012832 | 73 | 248 | 0.9 | 1.7 | 0.00 | 0.03 | 0.03 | 94 | 1012.5 |
| 20260906012330 | 73 | 203 | 0.0 | 0.9 | 0.00 | 0.03 | 0.03 | 93 | 1012.5 |
| 20260906011828 | 73 | 248 | 0.9 | 1.7 | 0.00 | 0.03 | 0.03 | 93 | 1012.1 |
| 20260906011327 | 74 | 225 | 0.0 | 0.0 | 0.00 | 0.03 | 0.03 | 93 | 1012.1 |
| 20260906010825 | 74 | 225 | 0.0 | 0.9 | 0.00 | 0.03 | 0.03 | 93 | 1012.1 |
| 20260906010323 | 74 | 225 | 1.7 | 2.6 | 0.00 | 0.03 | 0.03 | 93 | 1012.1 |
| 20260906005821 | 74 | 180 | 0.0 | 0.9 | 0.00 | 0.03 | 0.03 | 92 | 1012.1 |
| 20260906005320 | 74 | 180 | 1.7 | 1.7 | 0.00 | 0.03 | 0.03 | 92 | 1012.1 |
| 20260906004818 | 74 | 203 | 0.9 | 1.7 | 0.00 | 0.03 | 0.03 | 92 | 1011.8 |
| 20260906004316 | 74 | 248 | 0.0 | 1.7 | 0.00 | 0.03 | 0.03 | 92 | 1011.8 |
| 20260906003815 | 74 | 270 | 0.0 | 0.0 | 0.00 | 0.03 | 0.03 | 92 | 1012.1 |
| 20260906003313 | 74 | 248 | 0.0 | 0.0 | 0.00 | 0.03 | 0.03 | 92 | 1012.1 |
| 20260906002812 | 74 | 203 | 1.7 | 2.6 | 0.00 | 0.03 | 0.03 | 91 | 1012.1 |
| 20260906002310 | 75 | 203 | 0.9 | 0.9 | 0.00 | 0.03 | 0.03 | 91 | 1012.1 |
| 20260906001808 | 75 | 248 | 0.0 | 0.0 | 0.00 | 0.03 | 0.03 | 91 | 1012.1 |
| 20260906001306 | 75 | 225 | 0.0 | 0.0 | 0.00 | 0.03 | 0.03 | 90 | 1011.8 |
| 20260906000805 | 75 | 225 | 0.0 | 0.0 | 0.00 | 0.03 | 0.03 | 90 | 1011.8 |
| 20260906000303 | 76 | 225 | 1.7 | 1.7 | 0.00 | 0.03 | 0.03 | 88 | 1011.8 |
| 20260905235801 | 76 | 203 | 0.0 | 0.0 | 0.00 | 0.03 | 0.03 | 87 | 1011.8 |
| 20260905235259 | 76 | 225 | 0.0 | 0.0 | 0.00 | 0.03 | 0.03 | 87 | 1011.5 |
| 20260905234758 | 77 | 203 | 0.0 | 0.0 | 0.00 | 0.03 | 0.03 | 85 | 1011.5 |
| 20260905234256 | 77 | 203 | 0.0 | 0.0 | 0.00 | 0.03 | 0.03 | 84 | 1011.5 |
| 20260905233754 | 78 | 203 | 0.0 | 0.0 | 0.00 | 0.03 | 0.03 | 83 | 1011.8 |
| 20260905233253 | 78 | 248 | 0.0 | 0.0 | 0.00 | 0.03 | 0.03 | 82 | 1011.5 |
| 20260905232751 | 78 | 23 | 0.0 | 0.0 | 0.00 | 0.03 | 0.03 | 81 | 1011.1 |
| 20260905232250 | 78 | 23 | 0.0 | 0.0 | 0.00 | 0.03 | 0.03 | 81 | 1011.5 |
| 20260905231748 | 79 | 23 | 0.0 | 0.9 | 0.00 | 0.03 | 0.03 | 81 | 1011.1 |
| 20260905231246 | 79 | 23 | 0.9 | 1.7 | 0.00 | 0.03 | 0.03 | 80 | 1011.1 |
| 20260905230745 | 79 | 45 | 0.9 | 1.7 | 0.00 | 0.03 | 0.03 | 79 | 1011.1 |
| 20260905230243 | 79 | 23 | 0.0 | 0.9 | 0.00 | 0.03 | 0.03 | 79 | 1011.1 |
| 20260905225741 | 80 | 180 | 0.0 | 0.0 | 0.00 | 0.03 | 0.03 | 79 | 1011.1 |
| 20260905225240 | 80 | 248 | 0.9 | 1.7 | 0.00 | 0.03 | 0.03 | 79 | 1011.1 |
| 20260905224738 | 79 | 158 | 0.0 | 0.9 | 0.00 | 0.03 | 0.03 | 79 | 1011.1 |
| 20260905224237 | 79 | 270 | 0.0 | 0.0 | 0.00 | 0.03 | 0.03 | 79 | 1011.1 |
| 20260905223735 | 79 | 225 | 0.0 | 0.0 | 0.00 | 0.03 | 0.03 | 79 | 1011.1 |
| 20260905223233 | 79 | 270 | 0.0 | 0.9 | 0.00 | 0.03 | 0.03 | 79 | 1011.1 |
| 20260905222731 | 80 | 45 | 0.0 | 0.0 | 0.00 | 0.03 | 0.03 | 77 | 1010.8 |
| 20260905222230 | 81 | 293 | 0.0 | 0.0 | 0.00 | 0.03 | 0.03 | 75 | 1011.1 |
| 20260905221728 | 81 | 270 | 0.0 | 0.0 | 0.00 | 0.03 | 0.03 | 75 | 1011.1 |
| 20260905221226 | 81 | 90 | 0.0 | 0.9 | 0.00 | 0.03 | 0.03 | 74 | 1011.1 |
| 20260905220724 | 81 | 293 | 1.7 | 1.7 | 0.00 | 0.03 | 0.03 | 73 | 1011.1 |
| 20260905220223 | 82 | 45 | 0.9 | 2.6 | 0.00 | 0.03 | 0.03 | 73 | 1011.1 |
| 20260905215721 | 81 | 0 | 0.0 | 0.0 | 0.00 | 0.03 | 0.03 | 76 | 1011.1 |
| 20260905215220 | 81 | 113 | 2.6 | 4.3 | 0.00 | 0.03 | 0.03 | 77 | 1011.1 |
| 20260905214718 | 80 | 23 | 3.5 | 4.3 | 0.00 | 0.03 | 0.03 | 75 | 1011.1 |
| 20260905214216 | 81 | 0 | 0.9 | 1.7 | 0.00 | 0.03 | 0.03 | 76 | 1011.5 |
| 20260905213714 | 81 | 45 | 1.7 | 2.6 | 0.00 | 0.03 | 0.03 | 75 | 1011.5 |
| 20260905213212 | 80 | 68 | 0.0 | 0.9 | 0.00 | 0.03 | 0.03 | 78 | 1011.5 |
| 20260905212710 | 81 | 293 | 0.0 | 0.9 | 0.00 | 0.03 | 0.03 | 81 | 1011.5 |
| 20260905212209 | 80 | 90 | 0.0 | 1.7 | 0.00 | 0.03 | 0.03 | 82 | 1011.5 |
| 20260905211707 | 78 | 293 | 0.0 | 0.9 | 0.00 | 0.03 | 0.03 | 86 | 1011.8 |
| 20260905211205 | 77 | 225 | 0.0 | 0.0 | 0.00 | 0.03 | 0.03 | 88 | 1011.8 |
| 20260905210703 | 76 | 225 | 0.0 | 0.0 | 0.00 | 0.03 | 0.03 | 90 | 1011.8 |
| 20260905210202 | 75 | 0 | 1.7 | 2.6 | 0.00 | 0.03 | 0.03 | 90 | 1012.1 |
| 20260905205700 | 74 | 225 | 0.9 | 0.9 | 0.02 | 0.03 | 0.03 | 91 | 1012.1 |
| 20260905205158 | 74 | 203 | 1.7 | 1.7 | 0.02 | 0.03 | 0.03 | 91 | 1012.1 |
| 20260905204656 | 74 | 203 | 0.0 | 0.0 | 0.02 | 0.03 | 0.03 | 91 | 1012.1 |
| 20260905204154 | 74 | 90 | 0.0 | 0.0 | 0.02 | 0.03 | 0.03 | 90 | 1011.8 |
| 20260905203653 | 74 | 68 | 0.0 | 0.0 | 0.02 | 0.03 | 0.03 | 90 | 1012.1 |
| 20260905203151 | 74 | 225 | 0.0 | 0.0 | 0.02 | 0.03 | 0.03 | 88 | 1012.1 |
| 20260905202649 | 75 | 225 | 0.0 | 0.9 | 0.02 | 0.03 | 0.03 | 88 | 1011.8 |
| 20260905202148 | 75 | 248 | 0.9 | 1.7 | 0.01 | 0.02 | 0.02 | 87 | 1012.5 |
| 20260905201646 | 77 | 203 | 0.0 | 0.0 | 0.00 | 0.02 | 0.02 | 87 | 1012.8 |
| 20260905201145 | 77 | 315 | 0.0 | 1.7 | 0.00 | 0.02 | 0.02 | 85 | 1012.5 |
| 20260905200643 | 77 | 23 | 0.0 | 0.0 | 0.00 | 0.02 | 0.02 | 84 | 1012.5 |
| 20260905200141 | 78 | 0 | 0.0 | 0.0 | 0.00 | 0.02 | 0.02 | 85 | 1012.5 |
| 20260905195640 | 78 | 23 | 1.7 | 1.7 | 0.02 | 0.02 | 0.02 | 83 | 1012.5 |
| 20260905195138 | 78 | 0 | 1.7 | 1.7 | 0.02 | 0.02 | 0.02 | 86 | 1012.5 |
| 20260905194636 | 78 | 248 | 0.0 | 0.0 | 0.02 | 0.02 | 0.02 | 84 | 1011.8 |
| 20260905194134 | 79 | 315 | 2.6 | 4.3 | 0.02 | 0.02 | 0.02 | 84 | 1011.8 |
| 20260905193633 | 81 | 135 | 2.6 | 4.3 | 0.02 | 0.02 | 0.02 | 81 | 1011.8 |
| 20260905193132 | 85 | 180 | 2.6 | 6.1 | 0.01 | 0.01 | 0.01 | 73 | 1012.1 |
| 20260905192630 | 92 | 68 | 1.7 | 2.6 | 0.00 | 0.00 | 0.00 | 62 | 1011.5 |
| 20260905192128 | 94 | 203 | 0.9 | 1.7 | 0.00 | 0.00 | 0.00 | 52 | 1011.1 |
| 20260905191627 | 95 | 68 | 0.0 | 0.9 | 0.00 | 0.00 | 0.00 | 50 | 1011.5 |
| 20260905191125 | 96 | 45 | 0.9 | 1.7 | 0.00 | 0.00 | 0.00 | 48 | 1011.5 |
| 20260905190623 | 97 | 270 | 0.0 | 0.9 | 0.00 | 0.00 | 0.00 | 48 | 1011.1 |
| 20260905190121 | 98 | 158 | 0.9 | 1.7 | 0.00 | 0.00 | 0.00 | 48 | 1011.1 |
| 20260905185620 | 99 | 180 | 0.0 | 0.9 | 0.00 | 0.00 | 0.00 | 47 | 1011.1 |
| 20260905185118 | 100 | 45 | 1.7 | 1.7 | 0.00 | 0.00 | 0.00 | 46 | 1011.1 |
| 20260905184617 | 100 | 315 | 0.0 | 0.9 | 0.00 | 0.00 | 0.00 | 45 | 1011.1 |
| 20260905184115 | 99 | 180 | 2.6 | 2.6 | 0.00 | 0.00 | 0.00 | 47 | 1011.5 |
| 20260905183613 | 102 | 270 | 0.0 | 1.7 | 0.00 | 0.00 | 0.00 | 45 | 1011.5 |
| 20260905183112 | 100 | 90 | 0.9 | 1.7 | 0.00 | 0.00 | 0.00 | 45 | 1011.5 |
| 20260905182610 | 101 | 203 | 2.6 | 4.3 | 0.00 | 0.00 | 0.00 | 46 | 1011.5 |
| 20260905182108 | 100 | 45 | 0.0 | 0.9 | 0.00 | 0.00 | 0.00 | 49 | 1011.5 |
| 20260905181607 | 98 | 158 | 1.7 | 2.6 | 0.00 | 0.00 | 0.00 | 48 | 1011.8 |
| 20260905181105 | 99 | 203 | 1.7 | 2.6 | 0.00 | 0.00 | 0.00 | 46 | 1011.8 |
| 20260905180604 | 99 | 0 | 0.9 | 1.7 | 0.00 | 0.00 | 0.00 | 48 | 1012.1 |
| 20260905175601 | 95 | 23 | 2.6 | 4.3 | 0.00 | 0.00 | 0.00 | 51 | 1012.1 |
| 20260905175059 | 94 | 23 | 1.7 | 2.6 | 0.00 | 0.00 | 0.00 | 52 | 1012.5 |
| 20260905174557 | 95 | 68 | 1.7 | 2.6 | 0.00 | 0.00 | 0.00 | 51 | 1012.1 |
| 20260905174056 | 97 | 23 | 0.0 | 0.9 | 0.00 | 0.00 | 0.00 | 48 | 1012.5 |
| 20260905173554 | 99 | 338 | 0.0 | 0.0 | 0.00 | 0.00 | 0.00 | 46 | 1012.5 |
| 20260905173052 | 97 | 68 | 0.9 | 1.7 | 0.00 | 0.00 | 0.00 | 47 | 1012.8 |
| 20260905172551 | 96 | 23 | 3.5 | 4.3 | 0.00 | 0.00 | 0.00 | 47 | 1012.8 |
| 20260905172049 | 98 | 23 | 2.6 | 4.3 | 0.00 | 0.00 | 0.00 | 47 | 1012.8 |
| 20260905171548 | 98 | 45 | 3.5 | 5.2 | 0.00 | 0.00 | 0.00 | 49 | 1012.8 |
| 20260905171046 | 99 | 90 | 0.0 | 0.9 | 0.00 | 0.00 | 0.00 | 49 | 1012.8 |
| 20260905170544 | 98 | 225 | 2.6 | 3.5 | 0.00 | 0.00 | 0.00 | 48 | 1012.8 |
| 20260905170043 | 97 | 180 | 0.0 | 0.9 | 0.00 | 0.00 | 0.00 | 53 | 1013.2 |
| 20260905165541 | 97 | 225 | 0.0 | 0.0 | 0.00 | 0.00 | 0.00 | 54 | 1013.5 |
| 20260905165040 | 99 | 180 | 0.0 | 0.9 | 0.00 | 0.00 | 0.00 | 52 | 1013.5 |
| 20260905164538 | 98 | 135 | 1.7 | 4.3 | 0.00 | 0.00 | 0.00 | 54 | 1013.2 |
| 20260905164036 | 97 | 225 | 0.0 | 0.9 | 0.00 | 0.00 | 0.00 | 54 | 1013.5 |
| 20260905163535 | 97 | 180 | 1.7 | 1.7 | 0.00 | 0.00 | 0.00 | 54 | 1013.5 |
| 20260905163033 | 96 | 203 | 2.6 | 2.6 | 0.00 | 0.00 | 0.00 | 56 | 1013.5 |
| 20260905162531 | 97 | 248 | 3.5 | 5.2 | 0.00 | 0.00 | 0.00 | 54 | 1013.5 |
| 20260905162030 | 96 | 293 | 2.6 | 3.5 | 0.00 | 0.00 | 0.00 | 56 | 1013.8 |
| 20260905161528 | 97 | 248 | 0.9 | 1.7 | 0.00 | 0.00 | 0.00 | 57 | 1013.5 |
| 20260905161027 | 97 | 203 | 3.5 | 4.3 | 0.00 | 0.00 | 0.00 | 56 | 1013.8 |
| 20260905160526 | 97 | 113 | 0.9 | 1.7 | 0.00 | 0.00 | 0.00 | 59 | 1013.8 |
| 20260905160024 | 95 | 68 | 1.7 | 1.7 | 0.00 | 0.00 | 0.00 | 61 | 1013.8 |
| 20260905155522 | 95 | 248 | 1.7 | 1.7 | 0.00 | 0.00 | 0.00 | 62 | 1013.8 |
| 20260905155020 | 95 | 248 | 3.5 | 4.3 | 0.00 | 0.00 | 0.00 | 61 | 1013.8 |
| 20260905154519 | 95 | 225 | 1.7 | 1.7 | 0.00 | 0.00 | 0.00 | 63 | 1013.8 |
| 20260905154017 | 95 | 225 | 0.0 | 1.7 | 0.00 | 0.00 | 0.00 | 62 | 1013.8 |
| 20260905153516 | 94 | 203 | 1.7 | 1.7 | 0.00 | 0.00 | 0.00 | 64 | 1013.8 |
| 20260905153014 | 94 | 203 | 0.0 | 0.0 | 0.00 | 0.00 | 0.00 | 65 | 1013.8 |
| 20260905152512 | 92 | 158 | 1.7 | 1.7 | 0.00 | 0.00 | 0.00 | 66 | 1013.8 |
| 20260905152011 | 92 | 158 | 1.7 | 1.7 | 0.00 | 0.00 | 0.00 | 66 | 1014.2 |
| 20260905151509 | 93 | 225 | 3.5 | 4.3 | 0.00 | 0.00 | 0.00 | 64 | 1013.8 |
| 20260905151008 | 92 | 293 | 0.9 | 1.7 | 0.00 | 0.00 | 0.00 | 68 | 1014.2 |
| 20260905150506 | 92 | 203 | 3.5 | 4.3 | 0.00 | 0.00 | 0.00 | 67 | 1013.8 |
| 20260905150004 | 92 | 248 | 0.9 | 1.7 | 0.00 | 0.00 | 0.00 | 67 | 1013.8 |
| 20260905145503 | 93 | 68 | 0.0 | 1.7 | 0.00 | 0.00 | 0.00 | 66 | 1013.8 |
| 20260905145001 | 92 | 293 | 0.9 | 1.7 | 0.00 | 0.00 | 0.00 | 68 | 1014.2 |
| 20260905144459 | 91 | 158 | 1.7 | 3.5 | 0.00 | 0.00 | 0.00 | 69 | 1014.2 |
| 20260905143957 | 91 | 248 | 3.5 | 5.2 | 0.00 | 0.00 | 0.00 | 68 | 1014.2 |
| 20260905143455 | 90 | 225 | 3.5 | 4.3 | 0.00 | 0.00 | 0.00 | 68 | 1013.8 |
| 20260905142954 | 91 | 248 | 0.0 | 0.9 | 0.00 | 0.00 | 0.00 | 69 | 1013.8 |
| 20260905142452 | 91 | 203 | 0.9 | 1.7 | 0.00 | 0.00 | 0.00 | 68 | 1014.2 |
| 20260905141950 | 90 | 0 | 0.0 | 0.9 | 0.00 | 0.00 | 0.00 | 72 | 1014.2 |
| 20260905141449 | 89 | 203 | 0.0 | 1.7 | 0.00 | 0.00 | 0.00 | 73 | 1013.8 |
| 20260905140947 | 88 | 68 | 0.0 | 0.9 | 0.00 | 0.00 | 0.00 | 73 | 1014.2 |
| 20260905140445 | 88 | 248 | 0.0 | 0.9 | 0.00 | 0.00 | 0.00 | 74 | 1013.8 |
| 20260905135944 | 88 | 248 | 2.6 | 2.6 | 0.00 | 0.00 | 0.00 | 75 | 1013.8 |
| 20260905135442 | 87 | 338 | 0.9 | 1.7 | 0.00 | 0.00 | 0.00 | 77 | 1014.2 |
| 20260905134941 | 85 | 203 | 1.7 | 2.6 | 0.00 | 0.00 | 0.00 | 78 | 1013.8 |
| 20260905134440 | 86 | 248 | 0.9 | 1.7 | 0.00 | 0.00 | 0.00 | 78 | 1014.5 |
| 20260905133938 | 86 | 270 | 0.9 | 1.7 | 0.00 | 0.00 | 0.00 | 78 | 1014.2 |
| 20260905133436 | 85 | 248 | 0.9 | 2.6 | 0.00 | 0.00 | 0.00 | 80 | 1014.5 |
| 20260905132935 | 84 | 225 | 3.5 | 4.3 | 0.00 | 0.00 | 0.00 | 79 | 1014.2 |
| 20260905132433 | 84 | 270 | 0.9 | 1.7 | 0.00 | 0.00 | 0.00 | 80 | 1014.5 |
| 20260905131932 | 83 | 270 | 0.9 | 1.7 | 0.00 | 0.00 | 0.00 | 81 | 1014.5 |
| 20260905131430 | 83 | 248 | 0.0 | 0.0 | 0.00 | 0.00 | 0.00 | 83 | 1014.5 |
| 20260905130928 | 83 | 225 | 3.5 | 4.3 | 0.00 | 0.00 | 0.00 | 82 | 1014.5 |
| 20260905130427 | 83 | 225 | 0.9 | 0.9 | 0.00 | 0.00 | 0.00 | 83 | 1014.5 |
| 20260905125925 | 82 | 203 | 0.0 | 0.9 | 0.00 | 0.00 | 0.00 | 84 | 1014.9 |
| 20260905125424 | 82 | 158 | 0.0 | 0.0 | 0.00 | 0.00 | 0.00 | 86 | 1014.5 |
| 20260905124922 | 81 | 203 | 0.9 | 1.7 | 0.00 | 0.00 | 0.00 | 85 | 1014.5 |
| 20260905124421 | 80 | 203 | 0.9 | 0.9 | 0.00 | 0.00 | 0.00 | 87 | 1014.5 |
| 20260905123919 | 80 | 248 | 1.7 | 2.6 | 0.00 | 0.00 | 0.00 | 88 | 1014.5 |
| 20260905123418 | 79 | 203 | 2.6 | 4.3 | 0.00 | 0.00 | 0.00 | 89 | 1014.5 |
| 20260905122916 | 78 | 158 | 2.6 | 4.3 | 0.00 | 0.00 | 0.00 | 89 | 1014.5 |
| 20260905122414 | 78 | 180 | 1.7 | 2.6 | 0.00 | 0.00 | 0.00 | 90 | 1014.5 |
| 20260905121912 | 78 | 248 | 1.7 | 2.6 | 0.00 | 0.00 | 0.00 | 91 | 1014.5 |
| 20260905121411 | 78 | 225 | 0.0 | 0.0 | 0.00 | 0.00 | 0.00 | 92 | 1014.5 |
| 20260905120909 | 77 | 225 | 0.0 | 0.0 | 0.00 | 0.00 | 0.00 | 93 | 1014.5 |
| 20260905120407 | 76 | 248 | 0.0 | 0.0 | 0.00 | 0.00 | 0.00 | 94 | 1014.5 |
| 20260905115906 | 76 | 225 | 0.0 | 0.0 | 0.00 | 0.00 | 0.00 | 95 | 1014.5 |
| 20260905115404 | 76 | 248 | 0.0 | 0.0 | 0.00 | 0.00 | 0.00 | 95 | 1014.5 |
| 20260905114903 | 75 | 23 | 0.0 | 0.0 | 0.00 | 0.00 | 0.00 | 96 | 1014.5 |
| 20260905114401 | 74 | 45 | 0.0 | 0.0 | 0.00 | 0.00 | 0.00 | 96 | 1014.2 |
| 20260905113859 | 74 | 45 | 0.0 | 0.0 | 0.00 | 0.00 | 0.00 | 96 | 1014.2 |
| 20260905113358 | 74 | 23 | 0.0 | 0.0 | 0.00 | 0.00 | 0.00 | 96 | 1014.2 |
| 20260905112856 | 73 | 90 | 0.0 | 0.0 | 0.00 | 0.00 | 0.00 | 96 | 1014.2 |
| 20260905112354 | 73 | 225 | 0.0 | 0.0 | 0.00 | 0.00 | 0.00 | 96 | 1013.8 |
| 20260905111853 | 73 | 203 | 0.0 | 0.0 | 0.00 | 0.00 | 0.00 | 95 | 1013.8 |
| 20260905111351 | 73 | 0 | 0.0 | 0.0 | 0.00 | 0.00 | 0.00 | 95 | 1013.8 |
| 20260905110850 | 74 | 293 | 0.0 | 0.0 | 0.00 | 0.00 | 0.00 | 95 | 1013.5 |
| 20260905110348 | 74 | 23 | 0.0 | 0.0 | 0.00 | 0.00 | 0.00 | 95 | 1013.5 |
| 20260905105846 | 74 | 45 | 0.0 | 0.0 | 0.00 | 0.00 | 0.00 | 95 | 1013.5 |
| 20260905105345 | 74 | 180 | 0.0 | 0.0 | 0.00 | 0.00 | 0.00 | 95 | 1013.2 |
| 20260905104843 | 74 | 248 | 0.0 | 0.0 | 0.00 | 0.00 | 0.00 | 95 | 1013.2 |
| 20260905104341 | 74 | 270 | 0.0 | 0.0 | 0.00 | 0.00 | 0.00 | 95 | 1012.8 |
| 20260905103839 | 74 | 225 | 0.0 | 0.0 | 0.00 | 0.00 | 0.00 | 95 | 1012.8 |
| 20260905103338 | 74 | 203 | 0.0 | 0.0 | 0.00 | 0.00 | 0.00 | 95 | 1013.2 |
| 20260905102836 | 74 | 225 | 0.0 | 0.0 | 0.00 | 0.00 | 0.00 | 95 | 1012.8 |
| 20260905102334 | 74 | 225 | 0.0 | 0.0 | 0.00 | 0.00 | 0.00 | 95 | 1012.8 |
| 20260905101833 | 74 | 225 | 0.0 | 0.0 | 0.00 | 0.00 | 0.00 | 95 | 1012.8 |
| 20260905101332 | 74 | 225 | 0.0 | 0.0 | 0.00 | 0.00 | 0.00 | 95 | 1012.8 |
| 20260905100830 | 74 | 225 | 0.0 | 0.0 | 0.00 | 0.00 | 0.00 | 95 | 1012.8 |
| 20260905100328 | 74 | 203 | 0.0 | 0.0 | 0.00 | 0.00 | 0.00 | 95 | 1012.8 |
| 20260905095826 | 74 | 180 | 0.0 | 0.0 | 0.00 | 0.00 | 0.00 | 94 | 1012.8 |
| 20260905095325 | 74 | 203 | 0.0 | 0.0 | 0.00 | 0.00 | 0.00 | 94 | 1012.5 |
| 20260905094823 | 74 | 225 | 0.0 | 0.0 | 0.00 | 0.00 | 0.00 | 94 | 1012.8 |
| 20260905094322 | 74 | 248 | 0.0 | 0.0 | 0.00 | 0.00 | 0.00 | 94 | 1012.8 |
| 20260905093820 | 74 | 248 | 0.0 | 0.0 | 0.00 | 0.00 | 0.00 | 94 | 1012.8 |
| 20260905093318 | 75 | 225 | 0.0 | 0.0 | 0.00 | 0.00 | 0.00 | 94 | 1012.8 |
| 20260905092816 | 75 | 225 | 0.0 | 0.0 | 0.00 | 0.00 | 0.00 | 94 | 1012.8 |
| 20260905092315 | 75 | 270 | 0.0 | 0.0 | 0.00 | 0.00 | 0.00 | 94 | 1012.8 |
| 20260905091813 | 75 | 203 | 0.0 | 0.0 | 0.00 | 0.00 | 0.00 | 94 | 1012.8 |
| 20260905091311 | 75 | 203 | 0.0 | 0.0 | 0.00 | 0.00 | 0.00 | 94 | 1012.8 |
| 20260905090809 | 75 | 225 | 0.0 | 0.0 | 0.00 | 0.00 | 0.00 | 93 | 1012.8 |
| 20260905090308 | 75 | 225 | 0.0 | 0.0 | 0.00 | 0.00 | 0.00 | 93 | 1012.8 |
| 20260905085806 | 75 | 225 | 0.0 | 0.0 | 0.00 | 0.00 | 0.00 | 93 | 1013.2 |
| 20260905085306 | 75 | 225 | 0.0 | 0.0 | 0.00 | 0.00 | 0.00 | 93 | 1013.2 |
| 20260905084802 | 75 | 225 | 0.0 | 0.0 | 0.00 | 0.00 | 0.00 | 93 | 1012.8 |
| 20260905084301 | 75 | 248 | 0.0 | 0.0 | 0.00 | 0.00 | 0.00 | 93 | 1013.2 |
| 20260905083759 | 75 | 225 | 0.0 | 0.0 | 0.00 | 0.00 | 0.00 | 93 | 1013.2 |
| 20260905083257 | 75 | 270 | 0.0 | 0.0 | 0.00 | 0.00 | 0.00 | 93 | 1013.2 |
| 20260905082755 | 75 | 270 | 0.0 | 0.0 | 0.00 | 0.00 | 0.00 | 93 | 1013.5 |
| 20260905082253 | 75 | 225 | 0.0 | 0.0 | 0.00 | 0.00 | 0.00 | 93 | 1013.2 |
| 20260905081752 | 75 | 270 | 0.0 | 0.0 | 0.00 | 0.00 | 0.00 | 93 | 1013.5 |
| 20260905081250 | 75 | 225 | 0.0 | 0.0 | 0.00 | 0.00 | 0.00 | 93 | 1013.2 |
| 20260905080749 | 75 | 225 | 0.0 | 0.0 | 0.00 | 0.00 | 0.00 | 93 | 1013.5 |
| 20260905080247 | 75 | 225 | 0.0 | 0.0 | 0.00 | 0.00 | 0.00 | 93 | 1013.5 |
| 20260905075745 | 75 | 225 | 0.0 | 0.0 | 0.00 | 0.00 | 0.00 | 93 | 1013.5 |
| 20260905075243 | 75 | 203 | 0.0 | 0.0 | 0.00 | 0.00 | 0.00 | 93 | 1013.5 |
| 20260905074742 | 75 | 203 | 0.0 | 0.0 | 0.00 | 0.00 | 0.00 | 93 | 1013.5 |
| 20260905074240 | 75 | 248 | 0.0 | 0.0 | 0.00 | 0.00 | 0.00 | 93 | 1013.8 |
| 20260905073738 | 75 | 225 | 0.0 | 0.0 | 0.00 | 0.00 | 0.00 | 93 | 1013.5 |
| 20260905073236 | 75 | 270 | 0.0 | 0.0 | 0.00 | 0.00 | 0.00 | 93 | 1013.5 |
| 20260905072735 | 75 | 225 | 0.0 | 0.0 | 0.00 | 0.00 | 0.00 | 93 | 1013.8 |
| 20260905072233 | 75 | 68 | 0.0 | 0.0 | 0.00 | 0.00 | 0.00 | 93 | 1013.5 |
| 20260905071731 | 75 | 293 | 0.0 | 0.0 | 0.00 | 0.00 | 0.00 | 92 | 1013.5 |
| 20260905071230 | 75 | 0 | 0.0 | 0.0 | 0.00 | 0.00 | 0.00 | 92 | 1013.8 |
| 20260905070728 | 76 | 293 | 0.0 | 0.0 | 0.00 | 0.00 | 0.00 | 93 | 1013.8 |
| 20260905070226 | 75 | 293 | 0.0 | 0.0 | 0.00 | 0.00 | 0.00 | 93 | 1013.8 |
| 20260905065725 | 75 | 0 | 0.0 | 0.0 | 0.00 | 0.00 | 0.00 | 93 | 1014.2 |